createdAt,value
2018-08-13T00:01:03.013Z,100820.80
2018-08-13T00:03:31.760Z,100820.16
2018-08-13T00:06:00.434Z,100818.72
2018-08-13T00:08:29.151Z,100816.52
2018-08-13T00:10:57.843Z,100812.63
2018-08-13T00:13:26.475Z,100811.77
2018-08-13T00:15:55.154Z,100810.39
2018-08-13T00:18:23.837Z,100806.51
2018-08-13T00:20:52.527Z,100808.14
2018-08-13T00:23:21.182Z,100805.07
2018-08-13T00:25:49.953Z,100802.09
2018-08-13T00:28:18.636Z,100802.09
2018-08-13T00:30:47.373Z,100802.28
2018-08-13T00:33:16.057Z,100801.97
2018-08-13T00:35:44.738Z,100802.70
2018-08-13T00:38:13.378Z,100795.27
2018-08-13T00:40:42.080Z,100794.20
2018-08-13T00:43:10.915Z,100794.23
2018-08-13T00:45:39.614Z,100791.45
2018-08-13T00:48:08.295Z,100787.80
2018-08-13T00:50:36.991Z,100786.64
2018-08-13T00:53:12.428Z,100781.33
2018-08-13T00:55:41.105Z,100784.38
2018-08-13T00:58:09.775Z,100780.84
2018-08-13T01:00:38.498Z,100780.07
2018-08-13T01:03:07.941Z,100779.05
2018-08-13T01:05:36.615Z,100780.42
2018-08-13T01:08:05.293Z,100779.47
2018-08-13T01:10:33.979Z,100782.13
2018-08-13T01:13:02.722Z,100783.09
2018-08-13T01:15:31.408Z,100774.19
2018-08-13T01:18:00.100Z,100769.99
2018-08-13T01:20:28.789Z,100762.40
2018-08-13T01:22:57.499Z,100755.70
2018-08-13T01:25:26.177Z,100753.88
2018-08-13T01:27:54.835Z,100745.74
2018-08-13T01:30:23.511Z,100742.28
2018-08-13T01:32:52.224Z,100736.35
2018-08-13T01:35:20.899Z,100733.50
2018-08-13T01:37:49.573Z,100738.01
2018-08-13T01:40:18.231Z,100738.13
2018-08-13T01:42:46.893Z,100734.02
2018-08-13T01:45:15.569Z,100724.20
2018-08-13T01:47:44.236Z,100722.11
2018-08-13T01:50:13.645Z,100729.36
2018-08-13T01:52:42.640Z,100714.27
2018-08-13T01:55:11.883Z,100717.66
2018-08-13T01:57:40.549Z,100716.90
2018-08-13T02:00:14.307Z,100717.22
2018-08-13T02:02:43.064Z,100717.90
2018-08-13T02:05:11.762Z,100718.94
2018-08-13T02:07:40.493Z,100719.99
2018-08-13T02:10:11.128Z,100721.73
2018-08-13T02:12:40.037Z,100714.28
2018-08-13T02:15:08.747Z,100712.16
2018-08-13T02:17:37.497Z,100716.40
2018-08-13T02:20:07.507Z,100706.95
2018-08-13T02:22:36.371Z,100708.16
2018-08-13T02:25:06.175Z,100707.95
2018-08-13T02:27:34.859Z,100709.94
2018-08-13T02:30:03.733Z,100715.51
2018-08-13T02:32:32.433Z,100713.46
2018-08-13T02:35:01.113Z,100708.42
2018-08-13T02:37:29.796Z,100702.95
2018-08-13T02:39:58.470Z,100704.84
2018-08-13T02:42:27.263Z,100700.20
2018-08-13T02:44:55.957Z,100694.25
2018-08-13T02:47:24.637Z,100682.34
2018-08-13T02:49:53.271Z,100690.73
2018-08-13T02:52:21.964Z,100686.14
2018-08-13T02:54:50.653Z,100684.59
2018-08-13T02:57:19.344Z,100682.84
2018-08-13T02:59:47.997Z,100676.72
2018-08-13T03:02:16.703Z,100672.55
2018-08-13T03:04:45.466Z,100668.05
2018-08-13T03:07:14.120Z,100672.52
2018-08-13T03:09:42.788Z,100665.72
2018-08-13T03:12:11.467Z,100660.92
2018-08-13T03:14:40.193Z,100655.34
2018-08-13T03:17:09.009Z,100659.21
2018-08-13T03:19:37.666Z,100660.49
2018-08-13T03:22:06.353Z,100658.43
2018-08-13T03:24:35.011Z,100661.13
2018-08-13T03:27:03.703Z,100670.56
2018-08-13T03:29:32.368Z,100663.41
2018-08-13T03:32:01.062Z,100663.41
2018-08-13T03:34:29.719Z,100663.31
2018-08-13T03:36:58.420Z,100659.80
2018-08-13T03:39:27.059Z,100659.06
2018-08-13T03:41:55.738Z,100659.75
2018-08-13T03:44:24.418Z,100663.28
2018-08-13T03:46:53.119Z,100667.34
2018-08-13T03:49:21.768Z,100656.53
2018-08-13T03:51:50.448Z,100652.81
2018-08-13T03:54:19.116Z,100653.97
2018-08-13T03:56:47.798Z,100654.45
2018-08-13T03:59:16.478Z,100657.34
2018-08-13T04:01:45.141Z,100657.59
2018-08-13T04:04:13.834Z,100651.56
2018-08-13T04:06:42.529Z,100653.86
2018-08-13T04:09:11.207Z,100650.97
2018-08-13T04:11:40.180Z,100642.05
2018-08-13T04:14:09.684Z,100646.64
2018-08-13T04:16:39.039Z,100650.45
2018-08-13T04:19:08.847Z,100641.32
2018-08-13T04:21:37.527Z,100633.27
2018-08-13T04:24:06.213Z,100628.16
2018-08-13T04:26:34.869Z,100628.84
2018-08-13T04:29:03.584Z,100632.05
2018-08-13T04:31:32.268Z,100624.86
2018-08-13T04:34:00.986Z,100629.82
2018-08-13T04:36:29.650Z,100621.02
2018-08-13T04:38:58.322Z,100621.92
2018-08-13T04:41:26.970Z,100620.55
2018-08-13T04:43:55.640Z,100621.47
2018-08-13T04:46:24.376Z,100622.09
2018-08-13T04:48:53.096Z,100628.84
2018-08-13T04:51:21.763Z,100620.43
2018-08-13T04:53:50.521Z,100623.63
2018-08-13T04:56:19.184Z,100622.45
2018-08-13T04:58:47.896Z,100630.23
2018-08-13T05:01:16.624Z,100624.03
2018-08-13T05:03:45.283Z,100623.03
2018-08-13T05:06:13.947Z,100620.44
2018-08-13T05:08:42.632Z,100627.67
2018-08-13T05:11:11.295Z,100620.34
2018-08-13T05:13:39.958Z,100626.24
2018-08-13T05:16:08.767Z,100627.59
2018-08-13T05:18:37.500Z,100636.14
2018-08-13T05:21:06.211Z,100635.60
2018-08-13T05:23:34.941Z,100628.91
2018-08-13T05:26:03.635Z,100627.97
2018-08-13T05:28:32.328Z,100628.68
2018-08-13T05:31:01.017Z,100621.16
2018-08-13T05:33:29.709Z,100622.03
2018-08-13T05:35:58.393Z,100621.70
2018-08-13T05:38:27.089Z,100624.05
2018-08-13T05:40:55.819Z,100623.81
2018-08-13T05:43:24.568Z,100622.56
2018-08-13T05:45:53.296Z,100614.02
2018-08-13T05:48:21.992Z,100615.91
2018-08-13T05:50:50.671Z,100614.52
2018-08-13T05:53:19.377Z,100618.17
2018-08-13T05:55:48.087Z,100616.02
2018-08-13T05:58:16.766Z,100614.95
2018-08-13T06:00:45.436Z,100606.02
2018-08-13T06:03:14.222Z,100602.12
2018-08-13T06:05:42.889Z,100604.69
2018-08-13T06:08:11.615Z,100604.68
2018-08-13T06:10:40.275Z,100602.44
2018-08-13T06:13:08.999Z,100602.16
2018-08-13T06:15:37.672Z,100597.48
2018-08-13T06:18:06.773Z,100602.00
2018-08-13T06:20:35.470Z,100598.38
2018-08-13T06:23:04.145Z,100594.78
2018-08-13T06:25:32.842Z,100599.79
2018-08-13T06:28:01.504Z,100597.61
2018-08-13T06:30:30.192Z,100599.30
2018-08-13T06:32:58.867Z,100593.29
2018-08-13T06:35:27.554Z,100592.24
2018-08-13T06:37:56.208Z,100587.86
2018-08-13T06:40:24.899Z,100584.34
2018-08-13T06:42:53.628Z,100578.95
2018-08-13T06:45:22.312Z,100584.08
2018-08-13T06:47:51.044Z,100577.55
2018-08-13T06:50:19.740Z,100575.66
2018-08-13T06:52:48.400Z,100584.55
2018-08-13T06:55:17.124Z,100582.03
2018-08-13T06:57:45.797Z,100587.88
2018-08-13T07:00:15.108Z,100586.23
2018-08-13T07:02:43.831Z,100591.23
2018-08-13T07:05:12.608Z,100589.86
2018-08-13T07:13:47.177Z,100564.89
2018-08-13T07:16:15.871Z,100557.59
2018-08-13T07:18:44.635Z,100565.02
2018-08-13T07:21:13.308Z,100569.41
2018-08-13T07:23:41.992Z,100570.67
2018-08-13T07:26:10.716Z,100561.45
2018-08-13T07:28:39.394Z,100556.30
2018-08-13T07:31:08.123Z,100546.75
2018-08-13T07:33:36.799Z,100543.84
2018-08-13T07:36:05.604Z,100537.31
2018-08-13T07:38:34.295Z,100547.07
2018-08-13T07:41:02.971Z,100544.48
2018-08-13T07:43:31.657Z,100550.38
2018-08-13T07:46:00.369Z,100548.39
2018-08-13T07:48:29.065Z,100542.36
2018-08-13T07:50:57.743Z,100543.20
2018-08-13T07:53:26.407Z,100539.33
2018-08-13T07:55:55.123Z,100537.28
2018-08-13T07:58:23.766Z,100537.38
2018-08-13T08:00:52.500Z,100540.56
2018-08-13T08:03:21.138Z,100531.46
2018-08-13T08:05:49.862Z,100525.07
2018-08-13T08:08:18.508Z,100523.55
2018-08-13T08:10:47.203Z,100521.39
2018-08-13T08:13:15.886Z,100529.41
2018-08-13T08:15:44.639Z,100530.14
2018-08-13T08:18:13.351Z,100527.89
2018-08-13T08:20:42.052Z,100526.23
2018-08-13T08:23:10.718Z,100533.12
2018-08-13T08:25:39.435Z,100527.91
2018-08-13T08:28:08.128Z,100534.23
2018-08-13T08:30:36.871Z,100527.44
2018-08-13T08:33:06.738Z,100521.51
2018-08-13T08:35:35.593Z,100513.91
2018-08-13T08:38:04.296Z,100514.64
2018-08-13T08:40:33.104Z,100515.27
2018-08-13T08:43:01.739Z,100508.77
2018-08-13T08:45:30.460Z,100505.97
2018-08-13T08:47:59.123Z,100505.97
2018-08-13T08:50:27.826Z,100514.22
2018-08-13T08:52:56.469Z,100510.97
2018-08-13T08:55:25.163Z,100509.99
2018-08-13T08:57:53.848Z,100503.27
2018-08-13T09:00:23.947Z,100506.98
2018-08-13T09:02:52.679Z,100508.39
2018-08-13T09:05:21.404Z,100503.40
2018-08-13T09:07:50.076Z,100502.75
2018-08-13T09:10:18.769Z,100498.22
2018-08-13T09:12:47.446Z,100500.11
2018-08-13T09:15:17.413Z,100501.84
2018-08-13T09:17:58.363Z,100495.53
2018-08-13T09:20:38.183Z,100502.27
2018-08-13T09:23:18.069Z,100499.95
2018-08-13T09:25:57.710Z,100493.11
2018-08-13T09:28:37.480Z,100494.19
2018-08-13T09:31:18.752Z,100501.00
2018-08-13T09:33:58.495Z,100504.53
2018-08-13T09:36:27.184Z,100494.19
2018-08-13T09:38:55.834Z,100490.28
2018-08-13T09:41:24.488Z,100488.91
2018-08-13T09:43:53.113Z,100492.53
2018-08-13T09:46:21.788Z,100488.75
2018-08-13T09:48:50.481Z,100489.77
2018-08-13T09:51:19.150Z,100483.75
2018-08-13T09:53:47.835Z,100478.06
2018-08-13T09:56:16.480Z,100470.96
2018-08-13T09:58:45.122Z,100475.34
2018-08-13T10:01:13.863Z,100481.39
2018-08-13T10:03:42.508Z,100479.77
2018-08-13T10:06:11.199Z,100468.44
2018-08-13T10:08:39.827Z,100466.94
2018-08-13T10:11:08.510Z,100469.08
2018-08-13T10:13:37.179Z,100467.92
2018-08-13T10:16:05.916Z,100466.82
2018-08-13T10:18:34.647Z,100463.51
2018-08-13T10:21:03.288Z,100453.75
2018-08-13T10:23:32.020Z,100458.00
2018-08-13T10:26:00.694Z,100464.72
2018-08-13T10:28:29.423Z,100453.16
2018-08-13T10:30:58.073Z,100448.98
2018-08-13T10:33:26.772Z,100448.09
2018-08-13T10:35:55.421Z,100437.89
2018-08-13T10:38:24.115Z,100443.34
2018-08-13T10:40:52.789Z,100435.05
2018-08-13T10:43:21.499Z,100437.77
2018-08-13T10:45:50.185Z,100429.63
2018-08-13T10:48:18.844Z,100426.19
2018-08-13T10:50:47.491Z,100428.46
2018-08-13T10:53:16.177Z,100427.63
2018-08-13T10:55:44.841Z,100427.39
2018-08-13T10:58:13.546Z,100427.09
2018-08-13T11:00:42.209Z,100423.94
2018-08-13T11:03:10.910Z,100419.98
2018-08-13T11:05:39.566Z,100411.53
2018-08-13T11:08:08.327Z,100407.33
2018-08-13T11:10:37.010Z,100413.18
2018-08-13T11:13:05.718Z,100402.48
2018-08-13T11:15:34.395Z,100409.31
2018-08-13T11:18:03.179Z,100413.95
2018-08-13T11:20:31.877Z,100407.76
2018-08-13T11:23:00.564Z,100402.50
2018-08-13T11:25:29.238Z,100398.55
2018-08-13T11:27:57.955Z,100397.60
2018-08-13T11:30:26.614Z,100391.23
2018-08-13T11:32:55.274Z,100391.55
2018-08-13T11:35:23.960Z,100390.51
2018-08-13T11:37:52.650Z,100389.47
2018-08-13T11:40:21.288Z,100381.66
2018-08-13T11:42:49.996Z,100388.61
2018-08-13T11:45:18.668Z,100380.69
2018-08-13T11:47:47.339Z,100381.61
2018-08-13T11:50:19.450Z,100372.80
2018-08-13T11:52:49.450Z,100376.78
2018-08-13T11:55:18.951Z,100373.98
2018-08-13T11:57:48.770Z,100373.29
2018-08-13T12:00:17.441Z,100373.50
2018-08-13T12:02:46.192Z,100360.67
2018-08-13T12:05:15.883Z,100366.58
2018-08-13T12:07:46.047Z,100358.27
2018-08-13T12:10:15.240Z,100369.16
2018-08-13T12:12:44.478Z,100360.38
2018-08-13T12:15:13.867Z,100362.80
2018-08-13T12:17:43.128Z,100357.77
2018-08-13T12:20:18.638Z,100347.18
2018-08-13T12:22:47.577Z,100349.41
2018-08-13T12:25:27.723Z,100341.88
2018-08-13T12:27:56.569Z,100334.57
2018-08-13T12:30:25.323Z,100343.16
2018-08-13T12:32:54.696Z,100335.61
2018-08-13T12:35:23.400Z,100337.69
2018-08-13T12:37:52.469Z,100342.14
2018-08-13T12:40:21.206Z,100343.43
2018-08-13T12:42:49.954Z,100329.67
2018-08-13T12:45:19.231Z,100337.67
2018-08-13T12:47:47.899Z,100334.60
2018-08-13T12:50:18.742Z,100332.13
2018-08-13T12:52:48.694Z,100354.39
2018-08-13T12:55:17.598Z,100364.55
2018-08-13T12:57:46.309Z,100369.60
2018-08-13T13:00:16.144Z,100368.28
2018-08-13T13:02:44.895Z,100370.14
2018-08-13T13:05:14.909Z,100369.22
2018-08-13T13:07:43.579Z,100383.02
2018-08-13T13:10:14.039Z,100380.96
2018-08-13T13:12:43.025Z,100387.16
2018-08-13T13:15:14.123Z,100402.97
2018-08-13T13:17:42.831Z,100410.13
2018-08-13T13:20:13.991Z,100423.50
2018-08-13T13:22:42.643Z,100436.34
2018-08-13T13:25:11.314Z,100435.99
2018-08-13T13:27:40.013Z,100442.30
2018-08-13T13:30:12.079Z,100445.25
2018-08-13T13:32:40.883Z,100452.55
2018-08-13T13:35:11.153Z,100459.88
2018-08-13T13:37:39.829Z,100465.64
2018-08-13T13:40:10.802Z,100463.85
2018-08-13T13:42:39.833Z,100453.22
2018-08-13T13:45:09.525Z,100457.89
2018-08-13T13:47:38.730Z,100458.40
2018-08-13T13:50:10.244Z,100457.28
2018-08-13T13:52:38.915Z,100451.09
2018-08-13T13:55:07.895Z,100456.72
2018-08-13T13:57:36.548Z,100458.33
2018-08-13T14:00:22.699Z,100458.78
2018-08-13T14:02:52.238Z,100468.33
2018-08-13T14:05:21.458Z,100468.13
2018-08-13T14:07:50.128Z,100466.91
2018-08-13T14:10:22.766Z,100474.23
2018-08-13T14:12:51.452Z,100476.53
2018-08-13T14:15:20.935Z,100465.55
2018-08-13T14:17:50.092Z,100462.64
2018-08-13T14:20:18.853Z,100464.70
2018-08-13T14:22:47.538Z,100466.99
2018-08-13T14:25:16.299Z,100468.13
2018-08-13T14:27:45.012Z,100463.14
2018-08-13T14:30:19.268Z,100461.51
2018-08-13T14:32:48.215Z,100463.21
2018-08-13T14:35:17.607Z,100465.73
2018-08-13T14:37:46.340Z,100467.38
2018-08-13T14:40:15.065Z,100456.31
2018-08-13T14:42:44.497Z,100456.68
2018-08-13T14:45:14.591Z,100449.48
2018-08-13T14:47:44.666Z,100448.60
2018-08-13T14:50:13.819Z,100456.27
2018-08-13T14:52:43.821Z,100446.70
2018-08-13T14:55:13.381Z,100454.97
2018-08-13T14:57:42.037Z,100452.38
2018-08-13T15:00:19.583Z,100452.55
2018-08-13T15:02:48.380Z,100454.61
2018-08-13T15:05:17.464Z,100447.42
2018-08-13T15:07:46.164Z,100450.86
2018-08-13T15:10:16.603Z,100449.04
2018-08-13T15:12:45.656Z,100444.95
2018-08-13T15:15:14.474Z,100452.52
2018-08-13T15:17:43.311Z,100452.79
2018-08-13T15:20:24.874Z,100452.02
2018-08-13T15:22:53.870Z,100445.38
2018-08-13T15:25:22.631Z,100441.25
2018-08-13T15:27:51.471Z,100440.17
2018-08-13T15:30:20.943Z,100430.70
2018-08-13T15:32:50.561Z,100431.73
2018-08-13T15:35:19.263Z,100435.63
2018-08-13T15:37:48.389Z,100425.59
2018-08-13T15:40:17.129Z,100416.89
2018-08-13T15:42:45.844Z,100417.33
2018-08-13T15:45:16.993Z,100406.94
2018-08-13T15:47:46.074Z,100400.45
2018-08-13T15:50:16.515Z,100407.60
2018-08-13T15:52:45.591Z,100409.29
2018-08-13T15:55:14.718Z,100408.80
2018-08-13T15:57:43.908Z,100401.29
2018-08-13T16:00:14.561Z,100398.94
2018-08-13T16:02:43.322Z,100390.14
2018-08-13T16:05:12.520Z,100379.73
2018-08-13T16:07:41.245Z,100372.85
2018-08-13T16:10:11.990Z,100374.10
2018-08-13T16:12:40.733Z,100379.45
2018-08-13T16:15:09.779Z,100370.30
2018-08-13T16:17:39.212Z,100369.53
2018-08-13T16:20:11.895Z,100368.78
2018-08-13T16:22:40.648Z,100371.53
2018-08-13T16:25:09.428Z,100370.33
2018-08-13T16:27:38.580Z,100362.39
2018-08-13T16:30:14.491Z,100354.63
2018-08-13T16:32:43.257Z,100347.11
2018-08-13T16:35:12.004Z,100349.37
2018-08-13T16:37:40.687Z,100338.04
2018-08-13T16:40:09.344Z,100333.59
2018-08-13T16:42:38.083Z,100328.58
2018-08-13T16:45:07.104Z,100335.22
2018-08-13T16:47:36.159Z,100323.19
2018-08-13T16:50:07.022Z,100327.63
2018-08-13T16:52:35.674Z,100331.58
2018-08-13T16:55:04.934Z,100330.80
2018-08-13T16:57:33.661Z,100332.86
2018-08-13T17:00:02.356Z,100325.73
2018-08-13T17:02:31.078Z,100328.02
2018-08-13T17:04:59.757Z,100319.06
2018-08-13T17:07:28.459Z,100319.59
2018-08-13T17:09:57.143Z,100313.63
2018-08-13T17:12:25.889Z,100324.75
2018-08-13T17:14:54.646Z,100322.72
2018-08-13T17:17:23.383Z,100323.03
2018-08-13T17:19:52.045Z,100324.27
2018-08-13T17:22:20.719Z,100321.55
2018-08-13T17:24:49.408Z,100329.66
2018-08-13T17:27:18.125Z,100331.66
2018-08-13T17:29:46.810Z,100332.81
2018-08-13T17:32:15.516Z,100333.44
2018-08-13T17:34:44.204Z,100330.16
2018-08-13T17:37:12.884Z,100324.61
2018-08-13T17:39:41.599Z,100326.95
2018-08-13T17:42:10.396Z,100328.11
2018-08-13T17:44:39.085Z,100332.03
2018-08-13T17:47:07.811Z,100330.12
2018-08-13T17:49:36.556Z,100325.96
2018-08-13T17:52:05.267Z,100327.91
2018-08-13T17:54:33.927Z,100330.44
2018-08-13T17:57:02.607Z,100327.71
2018-08-13T17:59:31.300Z,100327.20
2018-08-13T18:01:59.996Z,100327.30
2018-08-13T18:04:28.659Z,100325.97
2018-08-13T18:06:57.333Z,100323.55
2018-08-13T18:09:25.992Z,100323.87
2018-08-13T18:11:54.715Z,100325.03
2018-08-13T18:14:23.415Z,100326.73
2018-08-13T18:16:52.128Z,100335.09
2018-08-13T18:19:20.835Z,100339.28
2018-08-13T18:21:49.550Z,100339.30
2018-08-13T18:24:18.225Z,100343.50
2018-08-13T18:26:46.885Z,100350.72
2018-08-13T18:29:15.587Z,100347.95
2018-08-13T18:31:44.303Z,100358.22
2018-08-13T18:34:12.603Z,100361.55
2018-08-13T18:36:41.379Z,100358.50
2018-08-13T18:39:10.031Z,100357.64
2018-08-13T18:41:38.711Z,100377.64
2018-08-13T18:44:09.383Z,100374.59
2018-08-13T18:46:38.067Z,100376.00
2018-08-13T18:49:06.790Z,100377.94
2018-08-13T18:51:35.460Z,100373.51
2018-08-13T18:54:04.163Z,100377.09
2018-08-13T18:56:32.817Z,100366.56
2018-08-13T18:59:01.620Z,100372.11
2018-08-13T19:01:30.255Z,100371.29
2018-08-13T19:03:59.032Z,100373.23
2018-08-13T19:06:27.715Z,100376.00
2018-08-13T19:08:56.429Z,100379.61
2018-08-13T19:11:25.124Z,100376.00
2018-08-13T19:13:53.851Z,100374.34
2018-08-13T19:16:22.555Z,100385.98
2018-08-13T19:18:51.260Z,100397.03
2018-08-13T19:21:19.896Z,100390.06
2018-08-13T19:23:48.567Z,100401.84
2018-08-13T19:26:17.219Z,100398.95
2018-08-13T19:28:45.878Z,100406.09
2018-08-13T19:31:14.518Z,100408.84
2018-08-13T19:33:43.215Z,100409.88
2018-08-13T19:36:11.900Z,100410.95
2018-08-13T19:38:40.575Z,100405.89
2018-08-13T19:41:09.237Z,100397.58
2018-08-13T19:43:37.903Z,100394.26
2018-08-13T19:46:06.955Z,100392.08
2018-08-13T19:48:35.613Z,100393.17
2018-08-13T19:51:04.335Z,100384.08
2018-08-13T19:53:33.016Z,100390.98
2018-08-13T19:56:01.673Z,100394.03
2018-08-13T19:58:30.360Z,100399.26
2018-08-13T20:00:59.065Z,100395.92
2018-08-13T20:03:27.736Z,100391.75
2018-08-13T20:05:56.408Z,100390.34
2018-08-13T20:08:25.093Z,100393.11
2018-08-13T20:10:53.734Z,100389.45
2018-08-13T20:13:22.425Z,100389.13
2018-08-13T20:15:51.105Z,100380.23
2018-08-13T20:18:19.780Z,100388.41
2018-08-13T20:20:48.449Z,100383.92
2018-08-13T20:23:17.115Z,100396.05
2018-08-13T20:25:45.781Z,100391.56
2018-08-13T20:28:14.481Z,100389.32
2018-08-13T20:30:43.161Z,100388.77
2018-08-13T20:33:11.872Z,100387.94
2018-08-13T20:35:40.531Z,100383.77
2018-08-13T20:38:09.207Z,100384.00
2018-08-13T20:40:37.910Z,100382.63
2018-08-13T20:43:06.949Z,100394.19
2018-08-13T20:45:35.600Z,100389.25
2018-08-13T20:48:04.252Z,100390.63
2018-08-13T20:50:32.997Z,100391.73
2018-08-13T20:53:01.745Z,100390.05
2018-08-13T20:55:30.624Z,100395.02
2018-08-13T20:57:59.366Z,100395.27
2018-08-13T21:00:29.741Z,100401.09
2018-08-13T21:02:58.455Z,100402.23
2018-08-13T21:05:27.134Z,100402.27
2018-08-13T21:07:55.852Z,100406.48
2018-08-13T21:10:25.440Z,100402.89
2018-08-13T21:12:54.270Z,100409.00
2018-08-13T21:15:23.044Z,100405.12
2018-08-13T21:17:52.186Z,100407.38
2018-08-13T21:20:22.735Z,100412.11
2018-08-13T21:22:51.433Z,100401.08
2018-08-13T21:25:20.139Z,100409.92
2018-08-13T21:27:48.868Z,100409.41
2018-08-13T21:30:17.548Z,100412.48
2018-08-13T21:32:46.615Z,100410.51
2018-08-13T21:35:17.364Z,100407.75
2018-08-13T21:37:46.374Z,100415.48
2018-08-13T21:40:15.072Z,100415.76
2018-08-13T21:42:44.034Z,100421.87
2018-08-13T21:45:13.078Z,100430.98
2018-08-13T21:47:41.915Z,100429.33
2018-08-13T21:50:13.824Z,100432.64
2018-08-13T21:52:42.504Z,100427.12
2018-08-13T21:55:11.366Z,100432.89
2018-08-13T21:57:40.031Z,100431.48
2018-08-13T22:00:36.079Z,100433.66
2018-08-13T22:03:05.152Z,100437.80
2018-08-13T22:05:33.823Z,100437.21
2018-08-13T22:08:02.541Z,100434.97
2018-08-13T22:10:31.216Z,100429.69
2018-08-13T22:12:59.884Z,100434.90
2018-08-13T22:15:29.747Z,100434.86
2018-08-13T22:18:00.181Z,100436.72
2018-08-13T22:20:29.921Z,100433.37
2018-08-13T22:22:59.854Z,100432.19
2018-08-13T22:25:31.043Z,100431.05
2018-08-13T22:28:00.334Z,100432.39
2018-08-13T22:30:29.492Z,100430.14
2018-08-13T22:32:58.146Z,100434.55
2018-08-13T22:35:26.859Z,100434.51
2018-08-13T22:37:55.532Z,100433.09
2018-08-13T22:40:24.285Z,100441.88
2018-08-13T22:42:53.031Z,100441.56
2018-08-13T22:45:23.625Z,100447.86
2018-08-13T22:47:52.319Z,100445.02
2018-08-13T22:50:21.016Z,100443.08
2018-08-13T22:52:49.773Z,100442.25
2018-08-13T22:55:19.124Z,100445.80
2018-08-13T22:57:48.187Z,100445.48
2018-08-13T23:00:18.900Z,100443.23
2018-08-13T23:02:48.470Z,100446.81
2018-08-13T23:05:19.666Z,100448.62
2018-08-13T23:07:48.339Z,100443.92
2018-08-13T23:10:18.545Z,100451.56
2018-08-13T23:12:48.496Z,100448.20
2018-08-13T23:15:17.730Z,100451.13
2018-08-13T23:17:46.860Z,100459.34
2018-08-13T23:20:25.419Z,100462.89
2018-08-13T23:22:56.215Z,100462.61
2018-08-13T23:25:25.025Z,100467.34
2018-08-13T23:27:54.787Z,100463.48
2018-08-13T23:30:23.452Z,100465.15
2018-08-13T23:32:53.367Z,100464.81
2018-08-13T23:35:22.769Z,100469.98
2018-08-13T23:37:51.917Z,100470.45
2018-08-13T23:40:20.621Z,100474.84
2018-08-13T23:42:49.378Z,100478.67
2018-08-13T23:45:20.285Z,100477.48
2018-08-13T23:47:49.252Z,100478.31
2018-08-13T23:50:19.819Z,100475.34
2018-08-13T23:52:49.789Z,100475.96
2018-08-13T23:55:31.133Z,100474.36
2018-08-13T23:58:00.267Z,100476.66
